Time;durP1;ratioP1;P1;durP2;ratioP2;P2;SDS_P1;SDS_P2;PMS_P1;PMS_P2;Temp;Humidity;BMP_temperature;BMP_pressure;BME280_temperature;BME280_humidity;BME280_pressure;Samples;Min_cycle;Max_cycle;Signal;HPM_P1;HPM_P2
2021/12/28 00:01:08;;;;;;;63.13;21.95;;;;;;;;;;5053241;28;20028;-37
2021/12/28 00:03:34;;;;;;;52.00;18.33;;;;;;;;;;5053158;28;20029;-37
2021/12/28 00:06:00;;;;;;;62.55;20.02;;;;;;;;;;5053362;28;20421;-37
2021/12/28 00:08:26;;;;;;;49.65;17.65;;;;;;;;;;5053330;28;20060;-37
2021/12/28 00:10:52;;;;;;;55.83;16.05;;;;;;;;;;5052976;28;20033;-37
2021/12/28 00:13:18;;;;;;;26.42;10.35;;;;;;;;;;5052845;28;20465;-37
2021/12/28 00:16:00;;;;;;;48.22;15.68;;;;;;;;;;5052961;28;20050;-37
2021/12/28 00:18:27;;;;;;;46.28;14.75;;;;;;;;;;5052880;28;20025;-37
2021/12/28 00:20:56;;;;;;;41.25;15.95;;;;;;;;;;5052668;28;20033;-36
2021/12/28 00:23:25;;;;;;;46.35;15.32;;;;;;;;;;5052577;28;20017;-37
2021/12/28 00:25:52;;;;;;;37.97;12.75;;;;;;;;;;5053049;28;20037;-37
2021/12/28 00:28:20;;;;;;;39.60;12.93;;;;;;;;;;5052976;28;20025;-37
2021/12/28 00:30:47;;;;;;;32.47;12.45;;;;;;;;;;5051552;28;20465;-37
2021/12/28 00:33:13;;;;;;;28.55;8.82;;;;;;;;;;5051105;28;20039;-37
2021/12/28 00:35:40;;;;;;;11.85;5.68;;;;;;;;;;5052088;28;20505;-37
2021/12/28 00:38:07;;;;;;;13.65;6.22;;;;;;;;;;5052377;28;20025;-37
2021/12/28 00:40:34;;;;;;;9.32;4.28;;;;;;;;;;5052401;28;20135;-36
2021/12/28 00:43:00;;;;;;;14.25;5.75;;;;;;;;;;5052316;28;20025;-36
2021/12/28 00:45:26;;;;;;;11.00;5.47;;;;;;;;;;5052155;28;20031;-36
2021/12/28 00:47:52;;;;;;;13.48;5.70;;;;;;;;;;5052338;28;20098;-36
2021/12/28 00:50:18;;;;;;;7.32;3.42;;;;;;;;;;5052451;28;20037;-36
2021/12/28 00:52:45;;;;;;;10.20;5.15;;;;;;;;;;5052524;28;20037;-36
2021/12/28 00:55:12;;;;;;;11.13;5.53;;;;;;;;;;5052778;28;20438;-36
2021/12/28 00:57:38;;;;;;;15.40;5.65;;;;;;;;;;5052632;28;20354;-36
2021/12/28 01:00:07;;;;;;;14.40;6.32;;;;;;;;;;5052291;28;20029;-36
2021/12/28 01:02:32;;;;;;;11.52;5.70;;;;;;;;;;5052658;28;20036;-36
2021/12/28 01:04:58;;;;;;;8.25;4.80;;;;;;;;;;5052616;28;20025;-36
2021/12/28 01:07:24;;;;;;;12.25;5.50;;;;;;;;;;5052249;28;20017;-37
2021/12/28 01:09:49;;;;;;;15.30;6.78;;;;;;;;;;5052530;28;20115;-36
2021/12/28 01:12:15;;;;;;;11.35;6.10;;;;;;;;;;5051777;28;20044;-36
2021/12/28 01:14:41;;;;;;;14.50;6.47;;;;;;;;;;5052142;28;20032;-36
2021/12/28 01:17:07;;;;;;;12.52;5.13;;;;;;;;;;5052188;28;20036;-36
2021/12/28 01:19:33;;;;;;;13.40;6.57;;;;;;;;;;5052387;28;20037;-36
2021/12/28 01:22:01;;;;;;;15.20;6.22;;;;;;;;;;5052120;28;20388;-37
2021/12/28 01:24:30;;;;;;;18.52;6.72;;;;;;;;;;5052437;28;20076;-36
2021/12/28 01:26:56;;;;;;;13.48;6.00;;;;;;;;;;5052390;28;20033;-37
2021/12/28 01:29:21;;;;;;;15.70;5.28;;;;;;;;;;5052348;28;20032;-36
2021/12/28 01:31:47;;;;;;;14.90;5.95;;;;;;;;;;5052016;28;20119;-36
2021/12/28 01:34:12;;;;;;;13.57;6.35;;;;;;;;;;5052029;28;20445;-36
2021/12/28 01:36:38;;;;;;;15.63;6.10;;;;;;;;;;5052311;28;20034;-36
2021/12/28 01:39:07;;;;;;;17.13;7.50;;;;;;;;;;5051959;28;20079;-36
2021/12/28 01:41:33;;;;;;;17.17;7.00;;;;;;;;;;5052189;28;20021;-37
2021/12/28 01:44:03;;;;;;;18.17;6.25;;;;;;;;;;5052269;28;20104;-37
2021/12/28 01:46:28;;;;;;;8.77;4.13;;;;;;;;;;5052009;28;20025;-36
2021/12/28 01:48:54;;;;;;;8.95;5.25;;;;;;;;;;5051638;28;20049;-36
2021/12/28 01:51:23;;;;;;;14.85;5.13;;;;;;;;;;5052228;28;20044;-37
2021/12/28 01:53:51;;;;;;;11.82;5.15;;;;;;;;;;5051773;28;20036;-37
2021/12/28 01:56:40;;;;;;;10.38;4.68;;;;;;;;;;5051829;28;20029;-36
2021/12/28 01:59:11;;;;;;;19.42;6.90;;;;;;;;;;5051595;28;20104;-36
2021/12/28 02:01:37;;;;;;;18.65;4.15;;;;;;;;;;5052135;28;20025;-37
2021/12/28 02:04:21;;;;;;;14.55;5.25;;;;;;;;;;5051982;28;20024;-36
2021/12/28 02:06:48;;;;;;;12.95;6.82;;;;;;;;;;5052202;28;20308;-36
2021/12/28 02:09:15;;;;;;;13.63;5.40;;;;;;;;;;5052643;28;20021;-36
2021/12/28 02:11:41;;;;;;;18.05;7.18;;;;;;;;;;5052715;28;20377;-36
2021/12/28 02:14:08;;;;;;;14.57;6.30;;;;;;;;;;5052222;28;20025;-36
2021/12/28 02:16:38;;;;;;;15.82;5.63;;;;;;;;;;5052579;28;20060;-36
2021/12/28 02:19:05;;;;;;;11.63;5.83;;;;;;;;;;5052369;28;20079;-36
2021/12/28 02:21:31;;;;;;;13.68;4.88;;;;;;;;;;5052628;28;20033;-36
2021/12/28 02:24:02;;;;;;;5.95;3.47;;;;;;;;;;5052554;28;20040;-36
2021/12/28 02:26:29;;;;;;;23.20;6.82;;;;;;;;;;5055312;28;20473;-36
2021/12/28 02:28:55;;;;;;;13.88;6.32;;;;;;;;;;5055970;28;20067;-37
2021/12/28 02:31:21;;;;;;;7.32;3.88;;;;;;;;;;5054749;28;20025;-36
2021/12/28 02:33:50;;;;;;;18.15;5.85;;;;;;;;;;5055781;28;20506;-36
2021/12/28 02:36:17;;;;;;;17.85;5.70;;;;;;;;;;5055616;28;20107;-36
2021/12/28 02:38:45;;;;;;;21.35;6.63;;;;;;;;;;5055405;28;20116;-37
2021/12/28 02:41:12;;;;;;;16.65;6.78;;;;;;;;;;5055348;28;20032;-36
2021/12/28 02:43:42;;;;;;;17.75;6.28;;;;;;;;;;5055643;28;20021;-37
2021/12/28 02:46:09;;;;;;;15.93;6.55;;;;;;;;;;5055205;28;20100;-36
2021/12/28 02:48:35;;;;;;;12.80;5.15;;;;;;;;;;5055102;28;20041;-36
2021/12/28 02:51:11;;;;;;;19.95;7.28;;;;;;;;;;5055422;28;20039;-36
2021/12/28 02:53:38;;;;;;;18.48;6.70;;;;;;;;;;5055252;28;20021;-36
2021/12/28 02:56:05;;;;;;;8.55;4.35;;;;;;;;;;5055450;28;20112;-36
2021/12/28 02:58:40;;;;;;;35.92;5.35;;;;;;;;;;5054939;28;20025;-36
2021/12/28 03:01:12;;;;;;;23.00;7.57;;;;;;;;;;5055304;28;20044;-37
2021/12/28 03:03:38;;;;;;;10.05;3.80;;;;;;;;;;5055009;28;20380;-36
2021/12/28 03:06:06;;;;;;;13.07;5.32;;;;;;;;;;5054884;28;20029;-37
2021/12/28 03:08:33;;;;;;;15.40;5.25;;;;;;;;;;5055022;28;20442;-36
2021/12/28 03:11:01;;;;;;;15.25;6.75;;;;;;;;;;5054661;28;20053;-36
2021/12/28 03:13:48;;;;;;;13.70;5.82;;;;;;;;;;5054964;28;20377;-36
2021/12/28 03:16:15;;;;;;;13.80;5.03;;;;;;;;;;5054512;28;20025;-37
2021/12/28 03:18:42;;;;;;;18.50;4.85;;;;;;;;;;5054960;28;20472;-36
2021/12/28 03:21:09;;;;;;;17.52;5.65;;;;;;;;;;5054291;28;20025;-37
2021/12/28 03:23:35;;;;;;;12.00;6.40;;;;;;;;;;5054637;28;20021;-36
2021/12/28 03:26:02;;;;;;;9.77;4.55;;;;;;;;;;5054509;28;20029;-36
2021/12/28 03:28:33;;;;;;;23.67;6.45;;;;;;;;;;5054344;28;20017;-36
2021/12/28 03:31:00;;;;;;;17.40;5.60;;;;;;;;;;5053192;28;20098;-36
2021/12/28 03:33:28;;;;;;;12.57;5.38;;;;;;;;;;5054403;28;20016;-36
2021/12/28 03:35:54;;;;;;;15.73;6.85;;;;;;;;;;5054276;28;20373;-36
2021/12/28 03:38:21;;;;;;;9.52;3.85;;;;;;;;;;5054256;28;20114;-36
2021/12/28 03:40:47;;;;;;;8.15;4.15;;;;;;;;;;5053897;28;20025;-36
2021/12/28 03:43:13;;;;;;;18.60;6.20;;;;;;;;;;5053863;28;20518;-36
2021/12/28 03:45:39;;;;;;;17.73;4.68;;;;;;;;;;5054042;28;20388;-36
2021/12/28 03:48:05;;;;;;;14.38;5.93;;;;;;;;;;5053858;28;20124;-36
2021/12/28 03:50:33;;;;;;;19.65;5.53;;;;;;;;;;5054067;28;20424;-36
2021/12/28 03:52:58;;;;;;;13.90;4.28;;;;;;;;;;5053576;28;20021;-36
2021/12/28 03:55:25;;;;;;;7.53;4.00;;;;;;;;;;5053529;28;20036;-36
2021/12/28 03:57:51;;;;;;;11.75;5.63;;;;;;;;;;5053617;28;20053;-36
2021/12/28 04:00:20;;;;;;;7.57;3.40;;;;;;;;;;5053375;28;20029;-36
2021/12/28 04:02:46;;;;;;;20.17;7.05;;;;;;;;;;5053760;28;20032;-36
2021/12/28 04:05:14;;;;;;;23.95;5.05;;;;;;;;;;5053278;28;20021;-36
2021/12/28 04:07:39;;;;;;;8.70;3.97;;;;;;;;;;5053660;28;20079;-36
2021/12/28 04:10:08;;;;;;;10.02;4.80;;;;;;;;;;5053618;28;20492;-36
2021/12/28 04:12:35;;;;;;;8.23;4.35;;;;;;;;;;5053314;28;20377;-37
2021/12/28 04:15:00;;;;;;;14.18;4.13;;;;;;;;;;5053462;28;20355;-37
2021/12/28 04:17:28;;;;;;;13.38;4.68;;;;;;;;;;5053042;28;20040;-36
2021/12/28 04:19:54;;;;;;;6.70;2.90;;;;;;;;;;5053228;28;20033;-36
2021/12/28 04:22:20;;;;;;;8.98;3.92;;;;;;;;;;5052991;28;20160;-37
2021/12/28 04:24:47;;;;;;;5.85;2.70;;;;;;;;;;5052997;28;20032;-36
2021/12/28 04:27:12;;;;;;;13.18;4.95;;;;;;;;;;5053202;28;20021;-37
2021/12/28 04:29:39;;;;;;;12.63;5.00;;;;;;;;;;5053086;28;20035;-37
2021/12/28 04:32:06;;;;;;;8.10;3.58;;;;;;;;;;5052795;28;20025;-36
2021/12/28 04:34:31;;;;;;;13.07;4.57;;;;;;;;;;5052744;28;20461;-36
2021/12/28 04:36:57;;;;;;;12.80;3.92;;;;;;;;;;5052720;28;20021;-36
2021/12/28 04:39:23;;;;;;;7.57;4.25;;;;;;;;;;5051530;28;20082;-36
2021/12/28 04:41:48;;;;;;;8.90;3.90;;;;;;;;;;5052974;28;20023;-36
2021/12/28 04:44:21;;;;;;;14.63;4.88;;;;;;;;;;5052578;28;20408;-36
2021/12/28 04:46:47;;;;;;;4.60;2.45;;;;;;;;;;5052435;28;20031;-36
2021/12/28 04:49:12;;;;;;;16.50;4.57;;;;;;;;;;5051840;28;20044;-36
2021/12/28 04:51:38;;;;;;;11.02;4.93;;;;;;;;;;5052468;28;20055;-35
2021/12/28 04:54:10;;;;;;;7.78;3.60;;;;;;;;;;5052518;28;20029;-35
2021/12/28 04:56:36;;;;;;;8.73;3.75;;;;;;;;;;5052451;28;20068;-35
2021/12/28 04:59:01;;;;;;;14.02;5.28;;;;;;;;;;5052597;28;20064;-35
2021/12/28 05:01:27;;;;;;;19.92;5.82;;;;;;;;;;5052584;28;20522;-36
2021/12/28 05:03:52;;;;;;;6.13;3.90;;;;;;;;;;5052597;28;20029;-35
2021/12/28 05:06:18;;;;;;;10.40;4.85;;;;;;;;;;5052353;28;20056;-35
2021/12/28 05:08:43;;;;;;;6.65;3.20;;;;;;;;;;5052272;28;20025;-35
2021/12/28 05:11:09;;;;;;;10.25;3.53;;;;;;;;;;5052405;28;20052;-35
2021/12/28 05:13:34;;;;;;;7.35;3.55;;;;;;;;;;5052171;28;20068;-35
2021/12/28 05:16:00;;;;;;;13.27;5.00;;;;;;;;;;5052517;28;20029;-35
2021/12/28 05:18:26;;;;;;;8.38;4.38;;;;;;;;;;5052180;28;20090;-35
2021/12/28 05:20:51;;;;;;;9.93;4.85;;;;;;;;;;5052181;28;20535;-35
2021/12/28 05:23:17;;;;;;;9.02;3.40;;;;;;;;;;5052068;28;20025;-35
2021/12/28 05:25:43;;;;;;;8.00;3.42;;;;;;;;;;5052443;28;20108;-35
2021/12/28 05:28:09;;;;;;;23.90;5.72;;;;;;;;;;5052453;28;20096;-37
2021/12/28 05:30:35;;;;;;;19.35;6.13;;;;;;;;;;5052137;28;20111;-36
2021/12/28 05:33:02;;;;;;;12.98;4.85;;;;;;;;;;5052082;28;20079;-36
2021/12/28 05:35:27;;;;;;;15.68;4.25;;;;;;;;;;5052028;28;20075;-36
2021/12/28 05:37:53;;;;;;;12.90;5.53;;;;;;;;;;5052326;28;20017;-36
2021/12/28 05:40:18;;;;;;;17.02;3.80;;;;;;;;;;5052194;28;20075;-36
2021/12/28 05:42:44;;;;;;;14.77;5.55;;;;;;;;;;5052500;28;20065;-37
2021/12/28 05:45:10;;;;;;;15.48;5.13;;;;;;;;;;5052021;28;20025;-36
2021/12/28 05:47:36;;;;;;;9.90;4.28;;;;;;;;;;5051994;28;20080;-36
2021/12/28 05:50:04;;;;;;;8.50;4.28;;;;;;;;;;5052230;28;20032;-36
2021/12/28 05:52:30;;;;;;;7.95;3.72;;;;;;;;;;5052246;28;20025;-36
2021/12/28 05:54:55;;;;;;;10.25;5.07;;;;;;;;;;5051886;28;20040;-36
2021/12/28 05:57:21;;;;;;;7.90;3.92;;;;;;;;;;5051899;28;20112;-36
2021/12/28 05:59:46;;;;;;;7.30;3.17;;;;;;;;;;5054389;28;20025;-36
2021/12/28 06:02:12;;;;;;;9.13;3.55;;;;;;;;;;5055935;28;20029;-36
2021/12/28 06:04:37;;;;;;;10.55;4.18;;;;;;;;;;5055824;28;20056;-36
2021/12/28 06:07:03;;;;;;;5.03;2.83;;;;;;;;;;5055880;28;20083;-36
2021/12/28 06:09:29;;;;;;;3.05;2.28;;;;;;;;;;5055456;28;20036;-36
2021/12/28 06:11:54;;;;;;;9.40;3.67;;;;;;;;;;5055743;28;20025;-36
2021/12/28 06:14:20;;;;;;;11.60;4.47;;;;;;;;;;5055777;28;20021;-37
2021/12/28 06:16:45;;;;;;;10.73;4.47;;;;;;;;;;5055313;28;20028;-36
2021/12/28 06:19:11;;;;;;;5.28;2.85;;;;;;;;;;5055338;28;20025;-36
2021/12/28 06:21:37;;;;;;;9.60;4.30;;;;;;;;;;5055260;28;20021;-36
2021/12/28 06:24:04;;;;;;;9.40;4.57;;;;;;;;;;5055565;28;20025;-36
2021/12/28 06:26:32;;;;;;;4.43;3.10;;;;;;;;;;5054786;28;20092;-37
2021/12/28 06:28:59;;;;;;;9.85;4.13;;;;;;;;;;5053338;28;20029;-37
2021/12/28 06:31:28;;;;;;;1.65;1.52;;;;;;;;;;5053868;28;20029;-36
2021/12/28 06:33:58;;;;;;;13.82;5.82;;;;;;;;;;5055208;28;20021;-36
2021/12/28 06:36:24;;;;;;;11.32;5.68;;;;;;;;;;5054470;28;20029;-36
2021/12/28 06:38:50;;;;;;;10.65;5.32;;;;;;;;;;5054894;28;20063;-36
2021/12/28 06:41:15;;;;;;;12.30;4.68;;;;;;;;;;5055097;28;20064;-36
2021/12/28 06:43:41;;;;;;;8.30;4.50;;;;;;;;;;5055182;28;20048;-36
2021/12/28 06:46:07;;;;;;;9.43;4.57;;;;;;;;;;5055162;28;20025;-36
2021/12/28 06:48:32;;;;;;;13.63;4.80;;;;;;;;;;5054637;28;20053;-36
2021/12/28 06:50:58;;;;;;;10.20;4.45;;;;;;;;;;5054900;28;20033;-36
2021/12/28 06:53:24;;;;;;;7.45;3.72;;;;;;;;;;5054740;28;20024;-36
2021/12/28 06:55:49;;;;;;;8.30;4.65;;;;;;;;;;5054686;28;20063;-36
2021/12/28 06:58:15;;;;;;;11.32;5.55;;;;;;;;;;5054065;28;20066;-36
2021/12/28 07:00:41;;;;;;;11.50;6.05;;;;;;;;;;5054715;28;20116;-35
2021/12/28 07:03:07;;;;;;;5.68;3.25;;;;;;;;;;5054518;28;20029;-36
2021/12/28 07:05:32;;;;;;;8.63;3.72;;;;;;;;;;5054428;28;20480;-36
2021/12/28 07:07:59;;;;;;;20.70;7.28;;;;;;;;;;5054649;28;20029;-36
2021/12/28 07:10:25;;;;;;;7.13;3.63;;;;;;;;;;5053863;28;20017;-36
2021/12/28 07:12:50;;;;;;;14.18;6.65;;;;;;;;;;5054743;28;20036;-36
2021/12/28 07:15:20;;;;;;;15.60;5.10;;;;;;;;;;5054232;28;20021;-36
2021/12/28 07:17:45;;;;;;;10.43;6.00;;;;;;;;;;5053299;28;20060;-36
2021/12/28 07:20:12;;;;;;;14.68;5.43;;;;;;;;;;5054126;28;20050;-36
2021/12/28 07:22:38;;;;;;;6.07;3.55;;;;;;;;;;5054100;28;20059;-36
2021/12/28 07:25:05;;;;;;;15.45;5.93;;;;;;;;;;5054130;28;20020;-36
2021/12/28 07:27:30;;;;;;;12.30;6.30;;;;;;;;;;5054295;28;20020;-36
2021/12/28 07:29:56;;;;;;;14.95;6.38;;;;;;;;;;5054239;28;20104;-36
2021/12/28 07:32:21;;;;;;;5.85;3.63;;;;;;;;;;5054004;28;20025;-35
2021/12/28 07:34:47;;;;;;;10.32;5.43;;;;;;;;;;5053676;28;20033;-36
2021/12/28 07:37:13;;;;;;;15.80;5.68;;;;;;;;;;5054117;28;20044;-36
2021/12/28 07:39:38;;;;;;;11.82;4.53;;;;;;;;;;5051941;28;20037;-37
2021/12/28 07:42:04;;;;;;;11.73;4.65;;;;;;;;;;5053421;28;20029;-36
2021/12/28 07:44:30;;;;;;;10.05;5.03;;;;;;;;;;5053895;28;20025;-35
2021/12/28 07:46:56;;;;;;;11.88;3.95;;;;;;;;;;5052694;28;20017;-36
2021/12/28 07:49:21;;;;;;;13.70;5.75;;;;;;;;;;5053089;28;20119;-36
2021/12/28 07:51:48;;;;;;;11.07;4.85;;;;;;;;;;5053816;28;20404;-37
2021/12/28 07:54:13;;;;;;;11.40;4.70;;;;;;;;;;5053855;28;20055;-36
2021/12/28 07:56:39;;;;;;;7.32;4.22;;;;;;;;;;5053903;28;20021;-36
2021/12/28 07:59:05;;;;;;;11.82;5.75;;;;;;;;;;5054376;28;20021;-36
2021/12/28 08:01:32;;;;;;;10.20;5.50;;;;;;;;;;5053835;28;20083;-36
2021/12/28 08:03:58;;;;;;;9.05;4.63;;;;;;;;;;5054197;28;20354;-36
2021/12/28 08:06:24;;;;;;;5.90;2.83;;;;;;;;;;5053801;28;20381;-36
2021/12/28 08:08:49;;;;;;;9.98;5.45;;;;;;;;;;5054212;28;20033;-36
2021/12/28 08:11:15;;;;;;;6.05;4.53;;;;;;;;;;5051772;28;20509;-36
2021/12/28 08:13:40;;;;;;;5.80;3.92;;;;;;;;;;5053654;28;20358;-36
2021/12/28 08:16:06;;;;;;;3.17;2.45;;;;;;;;;;5052600;28;20025;-36
2021/12/28 08:18:31;;;;;;;10.00;5.72;;;;;;;;;;5052398;28;20029;-36
2021/12/28 08:20:57;;;;;;;10.02;5.32;;;;;;;;;;5051959;28;20520;-36
2021/12/28 08:23:22;;;;;;;17.15;7.03;;;;;;;;;;5052152;28;20090;-37
2021/12/28 08:25:48;;;;;;;5.07;3.72;;;;;;;;;;5052145;28;20029;-36
2021/12/28 08:28:14;;;;;;;5.88;2.67;;;;;;;;;;5052074;28;20028;-36
2021/12/28 08:30:39;;;;;;;5.50;3.72;;;;;;;;;;5051992;28;20427;-36
2021/12/28 08:33:07;;;;;;;8.38;3.88;;;;;;;;;;5051977;28;20036;-36
2021/12/28 08:35:34;;;;;;;7.97;4.20;;;;;;;;;;5050400;28;20034;-36
2021/12/28 08:38:00;;;;;;;12.43;5.18;;;;;;;;;;5051724;28;20425;-36
2021/12/28 08:40:26;;;;;;;4.68;3.67;;;;;;;;;;5051359;28;20120;-36
2021/12/28 08:42:51;;;;;;;5.50;2.83;;;;;;;;;;5051596;28;20039;-36
2021/12/28 08:45:17;;;;;;;4.70;3.05;;;;;;;;;;5051496;28;20108;-36
2021/12/28 08:47:45;;;;;;;4.03;2.92;;;;;;;;;;5051304;28;20073;-36
2021/12/28 08:50:12;;;;;;;9.15;4.43;;;;;;;;;;5050039;28;20077;-36
2021/12/28 08:52:38;;;;;;;6.15;3.78;;;;;;;;;;5051745;28;20069;-36
2021/12/28 08:55:05;;;;;;;9.43;4.03;;;;;;;;;;5051017;28;20021;-36
2021/12/28 08:57:31;;;;;;;4.18;2.33;;;;;;;;;;5049098;28;20021;-36
2021/12/28 08:59:57;;;;;;;11.20;5.15;;;;;;;;;;5049882;28;20036;-36
2021/12/28 09:02:22;;;;;;;15.05;4.47;;;;;;;;;;5050374;28;20100;-37
2021/12/28 09:04:48;;;;;;;2.67;2.40;;;;;;;;;;5049824;28;20029;-36
2021/12/28 09:07:16;;;;;;;6.82;3.42;;;;;;;;;;5049790;28;20079;-36
2021/12/28 09:09:42;;;;;;;11.30;5.22;;;;;;;;;;5049987;28;20033;-36
2021/12/28 09:12:09;;;;;;;10.93;4.57;;;;;;;;;;5049790;28;20021;-36
2021/12/28 09:14:35;;;;;;;7.50;4.53;;;;;;;;;;5049828;28;20045;-36
2021/12/28 09:17:01;;;;;;;9.55;5.25;;;;;;;;;;5048685;28;20063;-36
2021/12/28 09:19:27;;;;;;;4.43;1.98;;;;;;;;;;5049505;28;20017;-36
2021/12/28 09:21:53;;;;;;;7.45;3.58;;;;;;;;;;5049563;28;20036;-36
2021/12/28 09:24:18;;;;;;;6.18;3.95;;;;;;;;;;5049655;28;20019;-36
2021/12/28 09:26:44;;;;;;;5.93;3.83;;;;;;;;;;5049694;28;20056;-36
2021/12/28 09:29:09;;;;;;;7.57;3.75;;;;;;;;;;5049634;28;20533;-36
2021/12/28 09:31:35;;;;;;;5.95;3.35;;;;;;;;;;5049631;28;20037;-36
2021/12/28 09:34:01;;;;;;;11.15;4.85;;;;;;;;;;5050867;28;20092;-36
2021/12/28 09:36:26;;;;;;;2.75;1.77;;;;;;;;;;5053581;28;20396;-36
2021/12/28 09:38:52;;;;;;;8.52;3.92;;;;;;;;;;5053596;28;20017;-37
2021/12/28 09:41:18;;;;;;;9.77;4.70;;;;;;;;;;5053290;28;20477;-36
2021/12/28 09:43:43;;;;;;;9.35;4.28;;;;;;;;;;5053372;28;20036;-38
2021/12/28 09:46:09;;;;;;;10.77;5.53;;;;;;;;;;5053449;28;20830;-36
2021/12/28 09:48:36;;;;;;;8.15;4.53;;;;;;;;;;5053099;28;20049;-36
2021/12/28 09:51:03;;;;;;;4.50;2.75;;;;;;;;;;5053374;28;20041;-36
2021/12/28 09:53:29;;;;;;;6.85;3.75;;;;;;;;;;5053141;28;20055;-37
2021/12/28 09:55:55;;;;;;;5.97;3.10;;;;;;;;;;5052188;28;20481;-36
2021/12/28 09:58:20;;;;;;;4.10;2.88;;;;;;;;;;5052954;28;20032;-36
2021/12/28 10:00:46;;;;;;;4.32;2.90;;;;;;;;;;5052888;28;20496;-36
2021/12/28 10:03:12;;;;;;;8.32;3.90;;;;;;;;;;5052780;28;20362;-36
2021/12/28 10:05:38;;;;;;;5.45;3.45;;;;;;;;;;5051790;28;20024;-36
2021/12/28 10:08:05;;;;;;;5.85;3.63;;;;;;;;;;5053147;28;20036;-36
2021/12/28 10:10:37;;;;;;;5.47;2.80;;;;;;;;;;5052970;28;20480;-36
2021/12/28 10:13:08;;;;;;;5.50;2.60;;;;;;;;;;5052855;28;20033;-37
2021/12/28 10:15:39;;;;;;;11.50;4.13;;;;;;;;;;5052908;28;20029;-36
2021/12/28 10:18:08;;;;;;;9.80;4.30;;;;;;;;;;5052419;28;20029;-36
2021/12/28 10:20:43;;;;;;;6.68;3.83;;;;;;;;;;5052751;28;20025;-35
2021/12/28 10:23:13;;;;;;;4.40;3.78;;;;;;;;;;5052414;28;20024;-36
2021/12/28 10:26:00;;;;;;;6.07;4.13;;;;;;;;;;5052751;28;20369;-36
2021/12/28 10:28:37;;;;;;;8.43;4.38;;;;;;;;;;5051757;28;20032;-37
2021/12/28 10:31:09;;;;;;;8.35;4.70;;;;;;;;;;5052481;28;20040;-37
2021/12/28 10:33:37;;;;;;;9.30;5.80;;;;;;;;;;5052547;28;20028;-36
2021/12/28 10:36:10;;;;;;;9.07;4.55;;;;;;;;;;5051741;28;20032;-36
2021/12/28 10:38:44;;;;;;;13.02;6.90;;;;;;;;;;5051642;28;20071;-36
2021/12/28 10:41:13;;;;;;;13.60;6.75;;;;;;;;;;5052163;28;20064;-36
2021/12/28 10:43:43;;;;;;;16.13;7.25;;;;;;;;;;5049197;28;20025;-35
2021/12/28 10:46:17;;;;;;;9.15;4.90;;;;;;;;;;5049161;28;20072;-37
2021/12/28 10:48:50;;;;;;;4.18;2.83;;;;;;;;;;5049735;28;20068;-36
2021/12/28 10:51:27;;;;;;;6.07;3.92;;;;;;;;;;5052336;28;20072;-37
2021/12/28 10:56:53;;;;;;;14.38;5.95;;;;;;;;;;5051846;28;20039;-37
2021/12/28 10:59:33;;;;;;;14.32;7.50;;;;;;;;;;5052148;28;20021;-36
2021/12/28 11:01:58;;;;;;;12.38;6.28;;;;;;;;;;5052171;28;20036;-37
2021/12/28 11:04:31;;;;;;;12.63;5.53;;;;;;;;;;5051908;28;20051;-37
2021/12/28 11:06:56;;;;;;;13.73;5.32;;;;;;;;;;5051784;28;20354;-36
2021/12/28 11:09:25;;;;;;;9.05;4.53;;;;;;;;;;5051732;28;20029;-37
2021/12/28 11:11:53;;;;;;;9.82;5.30;;;;;;;;;;5051678;28;20615;-37
2021/12/28 11:14:25;;;;;;;9.02;5.10;;;;;;;;;;5051502;28;20029;-37
2021/12/28 11:16:53;;;;;;;10.55;7.03;;;;;;;;;;5051681;28;20118;-37
2021/12/28 11:19:25;;;;;;;14.85;6.78;;;;;;;;;;5051585;28;20483;-37
2021/12/28 11:21:53;;;;;;;19.45;8.00;;;;;;;;;;5051671;28;20583;-36
2021/12/28 11:24:19;;;;;;;17.67;7.22;;;;;;;;;;5051698;28;20024;-37
2021/12/28 11:26:47;;;;;;;8.60;5.22;;;;;;;;;;5051321;28;20035;-38
2021/12/28 11:29:23;;;;;;;15.38;6.75;;;;;;;;;;5051543;28;20539;-37
2021/12/28 11:31:51;;;;;;;15.30;6.60;;;;;;;;;;5051545;28;20440;-37
2021/12/28 11:34:27;;;;;;;18.65;8.00;;;;;;;;;;5051432;28;20108;-37
2021/12/28 11:37:05;;;;;;;14.93;7.13;;;;;;;;;;5051084;28;20025;-37
2021/12/28 11:39:37;;;;;;;20.00;8.63;;;;;;;;;;5051052;28;20025;-38
2021/12/28 11:42:04;;;;;;;16.70;8.15;;;;;;;;;;5050902;28;20556;-37
2021/12/28 11:44:31;;;;;;;18.45;8.80;;;;;;;;;;5050969;28;20037;-37
2021/12/28 11:46:58;;;;;;;22.05;9.77;;;;;;;;;;5051295;28;20380;-37
2021/12/28 11:49:28;;;;;;;19.63;8.20;;;;;;;;;;5050479;28;20135;-36
2021/12/28 11:51:58;;;;;;;26.25;10.88;;;;;;;;;;5050835;28;20025;-37
2021/12/28 11:54:25;;;;;;;23.58;10.07;;;;;;;;;;5050822;28;20067;-37
2021/12/28 11:56:57;;;;;;;21.23;10.23;;;;;;;;;;5050240;28;20439;-37
2021/12/28 11:59:24;;;;;;;11.23;5.72;;;;;;;;;;5049280;28;20040;-37
2021/12/28 12:01:52;;;;;;;20.20;8.95;;;;;;;;;;5050804;28;20021;-37
2021/12/28 12:04:32;;;;;;;17.15;7.47;;;;;;;;;;5050448;28;20028;-37
2021/12/28 12:07:09;;;;;;;18.42;5.97;;;;;;;;;;5050516;28;20037;-36
2021/12/28 12:09:56;;;;;;;12.43;7.07;;;;;;;;;;5049334;28;20044;-37
2021/12/28 12:12:29;;;;;;;16.92;8.35;;;;;;;;;;5043232;28;20040;-36
2021/12/28 12:14:56;;;;;;;18.80;8.85;;;;;;;;;;5046885;28;20060;-37
2021/12/28 12:17:28;;;;;;;15.50;7.07;;;;;;;;;;5051176;28;20116;-37
2021/12/28 12:19:55;;;;;;;20.45;9.40;;;;;;;;;;5051872;28;20035;-37
2021/12/28 12:22:30;;;;;;;15.63;7.43;;;;;;;;;;5051913;28;20029;-36
2021/12/28 12:25:10;;;;;;;18.50;8.68;;;;;;;;;;5051479;28;20041;-36
2021/12/28 12:27:46;;;;;;;19.42;10.15;;;;;;;;;;5051041;28;20036;-36
2021/12/28 12:30:17;;;;;;;16.58;8.38;;;;;;;;;;5051930;28;20033;-37
2021/12/28 12:33:10;;;;;;;15.65;7.35;;;;;;;;;;5050853;28;20123;-38
2021/12/28 12:35:55;;;;;;;24.23;10.85;;;;;;;;;;5051632;28;20116;-36
2021/12/28 12:38:24;;;;;;;24.85;11.30;;;;;;;;;;5052656;28;20036;-37
2021/12/28 12:40:59;;;;;;;16.63;7.78;;;;;;;;;;5052204;28;20033;-37
2021/12/28 12:46:11;;;;;;;19.05;8.82;;;;;;;;;;5051081;28;20116;-37
2021/12/28 12:48:37;;;;;;;22.70;10.63;;;;;;;;;;5053257;28;20037;-42
2021/12/28 12:51:27;;;;;;;20.83;8.77;;;;;;;;;;5053292;28;20054;-37
2021/12/28 12:54:02;;;;;;;19.10;8.10;;;;;;;;;;5053167;28;20029;-37
2021/12/28 12:56:59;;;;;;;24.70;11.25;;;;;;;;;;5053104;28;20043;-37
2021/12/28 12:59:49;;;;;;;17.45;8.48;;;;;;;;;;5033010;28;20444;-37
2021/12/28 13:02:32;;;;;;;28.80;11.40;;;;;;;;;;5053033;28;20017;-37
2021/12/28 13:05:01;;;;;;;17.88;8.32;;;;;;;;;;5053091;28;20028;-37
2021/12/28 13:07:29;;;;;;;35.50;14.05;;;;;;;;;;5052923;28;20464;-37
2021/12/28 13:09:56;;;;;;;38.85;14.65;;;;;;;;;;5052119;28;20171;-37
2021/12/28 13:12:22;;;;;;;25.25;11.40;;;;;;;;;;5052810;28;20020;-37
2021/12/28 13:14:48;;;;;;;25.60;11.60;;;;;;;;;;5052945;28;20025;-37
2021/12/28 13:17:18;;;;;;;20.33;9.88;;;;;;;;;;5052910;28;20025;-37
2021/12/28 13:20:03;;;;;;;28.60;10.30;;;;;;;;;;5053067;28;20214;-37
2021/12/28 13:22:31;;;;;;;26.58;11.90;;;;;;;;;;5053007;28;20384;-37
2021/12/28 13:24:57;;;;;;;22.45;10.27;;;;;;;;;;5052593;28;20017;-37
2021/12/28 13:27:28;;;;;;;26.35;10.55;;;;;;;;;;5052632;28;20033;-37
2021/12/28 13:29:58;;;;;;;27.13;10.52;;;;;;;;;;5052703;28;20032;-37
2021/12/28 13:32:34;;;;;;;13.10;6.90;;;;;;;;;;5052632;28;20029;-37
2021/12/28 13:35:01;;;;;;;22.02;9.35;;;;;;;;;;5052730;28;20029;-37
2021/12/28 13:37:31;;;;;;;34.88;12.40;;;;;;;;;;5052379;28;20037;-37
2021/12/28 13:40:01;;;;;;;11.13;6.55;;;;;;;;;;5052331;28;20155;-36
2021/12/28 13:42:26;;;;;;;28.60;11.82;;;;;;;;;;5052654;28;20025;-36
2021/12/28 13:44:52;;;;;;;15.55;7.65;;;;;;;;;;5052457;28;20404;-37
2021/12/28 13:47:19;;;;;;;19.38;7.80;;;;;;;;;;5052028;28;20025;-37
2021/12/28 13:50:10;;;;;;;22.63;9.65;;;;;;;;;;5052277;28;20083;-37
2021/12/28 13:53:01;;;;;;;32.95;10.18;;;;;;;;;;5051932;28;20037;-37
2021/12/28 13:55:33;;;;;;;18.60;7.45;;;;;;;;;;5050609;28;20112;-37
2021/12/28 13:58:01;;;;;;;24.60;10.38;;;;;;;;;;5051918;28;20112;-37
2021/12/28 14:00:30;;;;;;;16.83;7.95;;;;;;;;;;5051645;28;20033;-36
2021/12/28 14:03:02;;;;;;;9.68;5.75;;;;;;;;;;5051739;28;20040;-36
2021/12/28 14:05:29;;;;;;;16.90;8.38;;;;;;;;;;5051920;28;20029;-37
2021/12/28 14:07:55;;;;;;;17.15;8.07;;;;;;;;;;5052096;28;20025;-36
2021/12/28 14:10:21;;;;;;;26.00;10.20;;;;;;;;;;5051835;28;20027;-36
2021/12/28 14:13:22;;;;;;;24.40;11.05;;;;;;;;;;5051721;28;20601;-36
2021/12/28 14:16:07;;;;;;;28.08;12.93;;;;;;;;;;5051814;28;20035;-37
2021/12/28 14:18:40;;;;;;;27.63;10.98;;;;;;;;;;5051733;28;20061;-37
2021/12/28 14:21:25;;;;;;;29.75;12.32;;;;;;;;;;5054314;28;20431;-36
2021/12/28 14:24:00;;;;;;;44.70;16.55;;;;;;;;;;5055276;28;20407;-36
2021/12/28 14:26:41;;;;;;;30.85;12.30;;;;;;;;;;5054030;28;20025;-36
2021/12/28 14:29:22;;;;;;;33.40;11.77;;;;;;;;;;5055293;28;20025;-36
2021/12/28 14:31:51;;;;;;;31.60;11.85;;;;;;;;;;5055233;28;20384;-36
2021/12/28 14:34:33;;;;;;;34.28;13.40;;;;;;;;;;5054975;28;20021;-36
2021/12/28 14:37:21;;;;;;;31.80;12.82;;;;;;;;;;5055353;28;20033;-36
2021/12/28 14:39:46;;;;;;;35.15;13.18;;;;;;;;;;5055192;28;20029;-37
2021/12/28 14:42:15;;;;;;;33.05;13.50;;;;;;;;;;5054997;28;20024;-36
2021/12/28 14:44:44;;;;;;;28.30;11.85;;;;;;;;;;5054870;28;20017;-36
2021/12/28 14:47:20;;;;;;;26.73;11.23;;;;;;;;;;5054764;28;20040;-37